createdAt,value
2019-02-28T04:00:58.675Z,16.77
2019-02-28T04:03:33.308Z,17.77
2019-02-28T04:06:02.892Z,18.77
2019-02-28T04:08:30.417Z,15.23
2019-02-28T04:10:58.496Z,16.50
2019-02-28T04:13:27.090Z,18.57
2019-02-28T04:16:07.559Z,17.93
2019-02-28T04:18:26.362Z,14.53
2019-02-28T04:20:55.233Z,17.77
2019-02-28T04:23:23.812Z,20.03
2019-02-28T04:25:56.726Z,18.53
2019-02-28T04:28:23.009Z,17.30
2019-02-28T04:30:51.637Z,16.87
2019-02-28T04:33:20.215Z,19.13
2019-02-28T04:35:48.789Z,18.13
2019-02-28T04:38:20.533Z,17.77
2019-02-28T04:40:47.973Z,19.20
2019-02-28T04:43:16.903Z,15.00
2019-02-28T04:45:45.474Z,19.83
2019-02-28T04:48:14.699Z,15.73
2019-02-28T04:50:43.310Z,17.90
2019-02-28T04:53:11.879Z,14.57
2019-02-28T04:55:40.481Z,19.70
2019-02-28T04:58:09.059Z,15.77
2019-02-28T05:00:38.063Z,19.50
2019-02-28T05:03:07.506Z,17.63
2019-02-28T05:05:36.077Z,19.87
2019-02-28T05:08:05.556Z,16.43
2019-02-28T05:10:34.557Z,19.03
2019-02-28T05:13:03.125Z,20.67
2019-02-28T05:15:34.596Z,20.13
2019-02-28T05:18:02.016Z,19.20
2019-02-28T05:20:30.589Z,18.73
2019-02-28T05:23:02.659Z,19.40
2019-02-28T05:25:29.720Z,20.67
2019-02-28T05:27:58.762Z,19.13
2019-02-28T05:30:27.377Z,18.63
2019-02-28T05:32:56.218Z,20.90
2019-02-28T05:35:26.596Z,19.80
2019-02-28T05:37:55.118Z,19.97
2019-02-28T05:40:23.725Z,18.33
2019-02-28T05:42:54.624Z,17.67
2019-02-28T05:45:22.598Z,18.83
2019-02-28T05:47:51.217Z,19.57
2019-02-28T05:50:19.787Z,21.47
2019-02-28T05:52:48.383Z,20.10
2019-02-28T05:55:16.955Z,23.27
2019-02-28T05:57:45.531Z,19.17
2019-02-28T06:00:15.527Z,19.80
2019-02-28T06:02:44.106Z,21.40
2019-02-28T06:05:13.066Z,23.30
2019-02-28T06:07:42.047Z,18.80
2019-02-28T06:10:10.633Z,18.70
2019-02-28T06:12:40.500Z,18.63
2019-02-28T06:15:09.632Z,22.40
2019-02-28T06:17:38.221Z,20.70
2019-02-28T06:20:07.437Z,19.90
2019-02-28T06:22:36.336Z,19.83
2019-02-28T06:25:05.115Z,25.10
2019-02-28T06:27:41.207Z,21.00
2019-02-28T06:30:04.249Z,19.47
2019-02-28T06:32:32.843Z,20.33
2019-02-28T06:35:01.414Z,19.03
2019-02-28T06:37:30.055Z,19.27
2019-02-28T06:39:59.340Z,20.60
2019-02-28T06:42:28.003Z,22.13
2019-02-28T06:44:58.704Z,21.40
2019-02-28T06:47:26.874Z,23.87
2019-02-28T06:49:55.473Z,26.73
2019-02-28T06:52:25.238Z,27.47
2019-02-28T06:54:54.424Z,21.57
2019-02-28T06:57:23.021Z,28.63
2019-02-28T06:59:51.593Z,23.63
2019-02-28T07:02:20.186Z,22.50
2019-02-28T07:04:49.483Z,24.53
2019-02-28T07:07:19.142Z,20.93
2019-02-28T07:09:47.724Z,22.17
2019-02-28T07:12:16.293Z,22.50
2019-02-28T07:14:49.280Z,20.60
2019-02-28T07:17:15.194Z,22.27
2019-02-28T07:19:43.806Z,26.67
2019-02-28T07:22:12.382Z,20.60
2019-02-28T07:24:40.958Z,20.80
2019-02-28T07:27:09.560Z,22.17
2019-02-28T07:29:38.153Z,20.10
2019-02-28T07:32:06.793Z,20.07
2019-02-28T07:34:35.375Z,22.23
2019-02-28T07:37:03.941Z,21.77
2019-02-28T07:39:32.535Z,18.50
2019-02-28T07:42:02.259Z,21.77
2019-02-28T07:44:31.448Z,21.40
2019-02-28T07:47:00.017Z,18.37
2019-02-28T07:49:28.586Z,19.83
2019-02-28T07:51:57.959Z,16.27
2019-02-28T07:54:26.629Z,15.43
2019-02-28T07:56:55.244Z,15.07
2019-02-28T07:59:23.835Z,19.63
2019-02-28T08:01:52.403Z,17.57
2019-02-28T08:04:20.997Z,19.00
2019-02-28T08:06:49.589Z,18.27
2019-02-28T08:09:26.420Z,14.70
2019-02-28T08:11:56.584Z,18.27
2019-02-28T08:14:25.467Z,19.00
2019-02-28T08:16:54.158Z,16.53
2019-02-28T08:19:22.996Z,16.13
2019-02-28T08:21:53.072Z,19.47
2019-02-28T08:24:21.641Z,16.77
2019-02-28T08:26:50.675Z,15.88
2019-02-28T08:29:20.543Z,15.18
2019-02-28T08:31:49.134Z,14.83
2019-02-28T08:34:20.713Z,14.30
2019-02-28T08:36:48.149Z,13.72
2019-02-28T08:39:17.237Z,15.55
2019-02-28T08:41:45.833Z,15.40
2019-02-28T08:44:14.407Z,15.15
2019-02-28T08:46:43.485Z,16.45
2019-02-28T08:49:13.406Z,14.47
2019-02-28T08:51:43.238Z,15.72
2019-02-28T08:54:11.967Z,17.70
2019-02-28T08:56:40.546Z,18.15
2019-02-28T08:59:11.795Z,17.03
2019-02-28T09:01:41.280Z,18.30
2019-02-28T09:04:10.014Z,15.87
2019-02-28T09:06:40.934Z,19.13
2019-02-28T09:09:10.809Z,16.17
2019-02-28T09:11:39.417Z,18.77
2019-02-28T09:14:07.993Z,17.07
2019-02-28T09:16:36.735Z,14.55
2019-02-28T09:19:06.893Z,16.85
2019-02-28T09:21:35.473Z,20.85
2019-02-28T09:24:04.078Z,15.72
2019-02-28T09:26:32.658Z,20.70
2019-02-28T09:29:01.243Z,15.13
2019-02-28T09:31:29.853Z,15.65
2019-02-28T09:33:58.883Z,17.50
2019-02-28T09:36:28.245Z,16.05
2019-02-28T09:38:59.500Z,16.02
2019-02-28T09:41:27.441Z,14.75
2019-02-28T09:43:57.214Z,15.10
2019-02-28T09:46:26.355Z,14.23
2019-02-28T09:48:54.961Z,14.83
2019-02-28T09:51:23.543Z,17.80
2019-02-28T09:53:52.518Z,14.28
2019-02-28T09:56:21.122Z,15.95
2019-02-28T09:58:49.701Z,22.17
2019-02-28T10:01:21.196Z,16.00
2019-02-28T10:03:48.906Z,15.80
2019-02-28T10:06:17.484Z,18.40
2019-02-28T10:08:46.081Z,17.45
2019-02-28T10:11:14.666Z,17.77
2019-02-28T10:13:43.261Z,18.15
2019-02-28T10:16:13.615Z,18.98
2019-02-28T10:18:42.146Z,15.95
2019-02-28T10:21:10.749Z,21.35
2019-02-28T10:23:39.408Z,18.55
2019-02-28T10:26:08.017Z,18.00
2019-02-28T10:28:36.616Z,19.30
2019-02-28T10:31:05.179Z,21.17
2019-02-28T10:33:33.778Z,19.52
2019-02-28T10:36:02.381Z,25.12
2019-02-28T10:38:32.911Z,23.02
2019-02-28T10:41:01.289Z,21.62
2019-02-28T10:43:29.869Z,25.80
2019-02-28T10:45:58.502Z,22.67
2019-02-28T10:48:27.090Z,22.50
2019-02-28T10:50:55.709Z,28.67
2019-02-28T10:53:24.298Z,24.67
2019-02-28T10:55:54.460Z,23.80
2019-02-28T10:58:23.197Z,24.95
2019-02-28T11:00:51.777Z,25.12
2019-02-28T11:03:20.387Z,27.82
2019-02-28T11:05:53.417Z,25.23
2019-02-28T11:08:19.423Z,28.20
2019-02-28T11:10:48.158Z,28.55
2019-02-28T11:13:17.802Z,29.70
2019-02-28T11:15:48.362Z,28.47
2019-02-28T11:18:16.718Z,30.92
2019-02-28T11:20:45.293Z,29.72
2019-02-28T11:23:15.664Z,25.05
2019-02-28T11:25:44.829Z,28.85
2019-02-28T11:28:13.858Z,26.40
2019-02-28T11:30:44.731Z,23.52
2019-02-28T11:33:13.923Z,22.98
2019-02-28T11:35:42.545Z,24.63
2019-02-28T11:38:11.289Z,25.17
2019-02-28T11:40:40.506Z,21.90
2019-02-28T11:43:10.386Z,22.35
2019-02-28T11:45:39.682Z,23.30
2019-02-28T11:48:08.290Z,19.62
2019-02-28T11:50:41.342Z,20.37
2019-02-28T11:53:07.201Z,24.20
2019-02-28T11:55:35.781Z,24.52
2019-02-28T11:58:04.366Z,21.20
2019-02-28T12:00:35.663Z,19.30
2019-02-28T12:03:05.330Z,17.90
2019-02-28T12:05:33.658Z,19.92
2019-02-28T12:08:02.249Z,19.95
2019-02-28T12:10:30.902Z,20.23
2019-02-28T12:12:59.504Z,21.52
2019-02-28T12:15:28.545Z,20.30
2019-02-28T12:17:57.157Z,19.37
2019-02-28T12:20:26.601Z,19.62
2019-02-28T12:22:56.078Z,17.87
2019-02-28T12:25:24.689Z,16.80
2019-02-28T12:27:55.273Z,21.77
2019-02-28T12:30:26.117Z,16.32
2019-02-28T12:32:54.777Z,15.20
2019-02-28T12:35:23.469Z,17.57
2019-02-28T12:37:53.918Z,14.83
2019-02-28T12:40:25.470Z,19.73
2019-02-28T12:42:54.052Z,15.53
2019-02-28T12:45:28.142Z,14.70
2019-02-28T12:47:56.725Z,14.00
2019-02-28T12:50:25.309Z,13.68
2019-02-28T12:52:53.943Z,12.63
2019-02-28T12:55:22.538Z,11.85
2019-02-28T12:57:51.740Z,10.55
2019-02-28T13:00:28.740Z,12.45
2019-02-28T13:02:57.341Z,14.07
2019-02-28T13:05:25.917Z,12.20
2019-02-28T13:07:54.493Z,13.30
2019-02-28T13:10:26.891Z,14.63
2019-02-28T13:12:53.417Z,13.18
2019-02-28T13:15:22.901Z,14.58
2019-02-28T13:17:51.541Z,11.95
2019-02-28T13:20:21.180Z,16.57
2019-02-28T13:22:49.776Z,15.75
2019-02-28T13:25:19.515Z,17.00
2019-02-28T13:27:50.214Z,16.25
2019-02-28T13:30:23.008Z,14.85
2019-02-28T13:32:51.566Z,14.73
2019-02-28T13:35:25.398Z,15.63
2019-02-28T13:37:54.172Z,17.45
2019-02-28T13:40:22.769Z,19.35
2019-02-28T13:42:51.374Z,20.05
2019-02-28T13:45:23.041Z,19.25
2019-02-28T13:47:50.318Z,17.85
2019-02-28T13:50:22.065Z,16.57
2019-02-28T13:52:52.154Z,18.37
2019-02-28T13:55:21.545Z,20.68
2019-02-28T13:57:50.117Z,18.67
2019-02-28T14:00:21.838Z,18.15
2019-02-28T14:02:58.461Z,22.17
2019-02-28T14:05:27.047Z,19.73
2019-02-28T14:07:55.761Z,21.48
2019-02-28T14:10:24.525Z,19.27
2019-02-28T14:12:57.004Z,18.10
2019-02-28T14:15:26.926Z,14.95
2019-02-28T14:17:55.850Z,18.40
2019-02-28T14:20:27.520Z,17.20
2019-02-28T14:22:54.753Z,17.45
2019-02-28T14:25:24.137Z,19.63
2019-02-28T14:27:52.770Z,14.38
2019-02-28T14:30:23.639Z,15.88
2019-02-28T14:32:52.409Z,19.10
2019-02-28T14:35:22.842Z,17.47
2019-02-28T14:37:55.320Z,20.33
2019-02-28T14:40:22.070Z,17.87
2019-02-28T14:42:50.686Z,21.20
2019-02-28T14:45:20.266Z,18.90
2019-02-28T14:47:56.911Z,15.57
2019-02-28T14:50:20.920Z,20.83
2019-02-28T14:52:50.514Z,19.13
2019-02-28T14:55:19.119Z,18.30
2019-02-28T14:57:48.878Z,16.13
2019-02-28T15:00:24.594Z,17.73
2019-02-28T15:02:53.166Z,18.13
2019-02-28T15:05:21.810Z,18.50
2019-02-28T15:07:50.742Z,14.97
2019-02-28T15:10:19.646Z,17.50
2019-02-28T15:12:48.465Z,14.57
2019-02-28T15:15:18.966Z,14.50
2019-02-28T15:17:47.824Z,13.67
2019-02-28T15:20:16.422Z,14.80
2019-02-28T15:22:45.706Z,15.80
2019-02-28T15:25:18.557Z,15.07
2019-02-28T15:27:45.777Z,15.67
2019-02-28T15:30:16.674Z,13.73
2019-02-28T15:32:45.259Z,13.13
2019-02-28T15:35:16.018Z,13.37
2019-02-28T15:37:44.714Z,13.80
2019-02-28T15:40:25.480Z,15.13
2019-02-28T15:42:54.076Z,13.73
2019-02-28T15:45:22.654Z,15.67
2019-02-28T15:47:59.138Z,16.03
2019-02-28T15:50:28.230Z,14.73
2019-02-28T15:52:56.975Z,16.13
2019-02-28T15:55:44.886Z,14.93
2019-02-28T15:58:13.470Z,19.30
2019-02-28T16:00:42.068Z,14.57
2019-02-28T16:03:13.529Z,18.87
2019-02-28T16:05:43.984Z,17.87
2019-02-28T16:08:11.278Z,18.50
2019-02-28T16:10:39.881Z,15.63
2019-02-28T16:13:08.462Z,15.27
2019-02-28T16:15:37.034Z,18.30
2019-02-28T16:18:08.766Z,18.17
2019-02-28T16:20:35.945Z,17.57
2019-02-28T16:23:04.538Z,22.53
2019-02-28T16:25:33.675Z,18.80
2019-02-28T16:28:04.444Z,16.70
2019-02-28T16:30:32.924Z,16.13
2019-02-28T16:33:01.726Z,18.67
2019-02-28T16:35:30.618Z,17.03
2019-02-28T16:37:59.314Z,19.53
2019-02-28T16:40:27.925Z,17.27
2019-02-28T16:42:56.509Z,17.27
2019-02-28T16:45:30.917Z,19.40
2019-02-28T16:48:02.948Z,22.03
2019-02-28T16:50:31.526Z,19.27
2019-02-28T16:53:00.113Z,21.80
2019-02-28T16:55:31.076Z,19.63
2019-02-28T16:57:59.349Z,18.37
2019-02-28T17:00:28.008Z,18.53
2019-02-28T17:02:56.665Z,19.47
2019-02-28T17:05:28.531Z,19.07
2019-02-28T17:07:57.354Z,18.07
2019-02-28T17:10:31.011Z,20.20
2019-02-28T17:13:30.705Z,15.33
2019-02-28T17:16:17.117Z,18.73
2019-02-28T17:18:45.980Z,21.93
2019-02-28T17:21:17.869Z,19.00
2019-02-28T17:23:45.340Z,15.80
2019-02-28T17:33:46.844Z,16.90
2019-02-28T17:36:14.755Z,19.13
2019-02-28T17:38:43.531Z,17.17
2019-02-28T17:41:12.258Z,20.53
2019-02-28T17:43:40.854Z,16.77
2019-02-28T17:46:10.590Z,19.07
2019-02-28T17:49:19.620Z,20.67
2019-02-28T17:51:58.565Z,16.23
2019-02-28T17:55:04.690Z,20.67
2019-02-28T17:58:04.137Z,17.37
2019-02-28T18:01:02.663Z,20.33
2019-02-28T18:04:20.985Z,19.10
2019-02-28T18:07:26.583Z,17.97
2019-02-28T18:10:01.267Z,22.50
2019-02-28T18:13:22.747Z,20.40
2019-02-28T18:16:28.338Z,18.83
2019-02-28T18:19:09.883Z,19.17
2019-02-28T18:21:52.175Z,17.30
2019-02-28T18:24:57.233Z,19.63
2019-02-28T18:27:59.759Z,17.93
2019-02-28T18:31:04.617Z,19.13
2019-02-28T18:33:33.230Z,18.60
2019-02-28T18:36:05.091Z,18.37
2019-02-28T18:38:35.713Z,16.30
2019-02-28T18:41:05.651Z,17.27
2019-02-28T18:43:32.814Z,15.93
2019-02-28T18:46:01.969Z,18.47
2019-02-28T18:48:30.618Z,17.20
2019-02-28T18:50:59.239Z,17.07
2019-02-28T18:53:27.875Z,14.27
2019-02-28T18:55:56.502Z,14.73
2019-02-28T18:58:25.146Z,14.10
2019-02-28T19:00:55.313Z,16.60
2019-02-28T19:03:25.557Z,16.70
2019-02-28T19:05:54.270Z,16.13
2019-02-28T19:08:22.887Z,15.67
2019-02-28T19:10:51.466Z,15.97
2019-02-28T19:13:20.065Z,18.20
2019-02-28T19:15:48.921Z,17.23
2019-02-28T19:18:17.499Z,17.30
2019-02-28T19:20:46.082Z,16.60
2019-02-28T19:23:14.705Z,17.03
2019-02-28T19:25:43.286Z,16.43
2019-02-28T19:28:11.907Z,17.93
2019-02-28T19:30:40.521Z,14.47
2019-02-28T19:33:09.098Z,16.43
2019-02-28T19:35:37.773Z,18.77
2019-02-28T19:38:06.491Z,15.33
2019-02-28T19:40:35.078Z,16.90
2019-02-28T19:43:03.707Z,14.93
2019-02-28T19:45:32.415Z,17.97
2019-02-28T19:48:00.993Z,22.23
2019-02-28T19:50:29.623Z,15.63
2019-02-28T19:52:58.678Z,16.80
2019-02-28T19:55:27.358Z,16.57
2019-02-28T19:57:55.954Z,18.20
2019-02-28T20:00:24.637Z,16.33
2019-02-28T20:02:53.224Z,21.10
2019-02-28T20:05:21.807Z,20.57
2019-02-28T20:07:50.421Z,17.13
2019-02-28T20:10:19.189Z,18.23
2019-02-28T20:12:47.777Z,19.40
2019-02-28T20:15:16.453Z,18.43
2019-02-28T20:17:45.106Z,21.30
2019-02-28T20:20:15.457Z,21.80
2019-02-28T20:22:44.078Z,16.80
2019-02-28T20:25:13.018Z,20.60
2019-02-28T20:27:41.626Z,17.57
2019-02-28T20:30:12.524Z,17.20
2019-02-28T20:32:41.113Z,17.63
2019-02-28T20:35:09.750Z,19.30
2019-02-28T20:37:38.357Z,24.40
2019-02-28T20:40:08.858Z,22.70
2019-02-28T20:42:37.454Z,19.50
2019-02-28T20:45:06.772Z,19.87
2019-02-28T20:47:35.350Z,23.67
2019-02-28T20:50:27.945Z,22.23
2019-02-28T20:52:56.530Z,20.30
2019-02-28T20:55:25.133Z,22.07
2019-02-28T20:57:53.746Z,23.63
2019-02-28T21:00:25.769Z,23.90
2019-02-28T21:02:54.615Z,17.93
2019-02-28T21:05:23.259Z,19.57
2019-02-28T21:07:51.842Z,20.03
2019-02-28T21:10:20.434Z,17.87
2019-02-28T21:12:49.038Z,19.57
2019-02-28T21:15:17.619Z,16.40
2019-02-28T21:17:46.196Z,15.77
2019-02-28T21:20:15.091Z,16.17
2019-02-28T21:22:43.672Z,18.77
2019-02-28T21:25:12.319Z,14.50
2019-02-28T21:27:40.921Z,16.30
2019-02-28T21:30:17.174Z,14.97
2019-02-28T21:32:45.761Z,14.63
2019-02-28T21:35:15.298Z,14.70
2019-02-28T21:37:43.908Z,12.47
2019-02-28T21:40:12.622Z,16.47
2019-02-28T21:42:41.352Z,14.90
2019-02-28T21:45:10.921Z,13.23
2019-02-28T21:47:39.526Z,15.63
2019-02-28T21:50:10.102Z,12.73
2019-02-28T21:52:38.678Z,13.80
2019-02-28T21:55:08.454Z,15.30
2019-02-28T21:57:37.058Z,14.70
2019-02-28T22:00:09.697Z,16.57
2019-02-28T22:02:38.297Z,15.97
2019-02-28T22:05:08.598Z,14.93
2019-02-28T22:07:37.178Z,13.17
2019-02-28T22:10:05.882Z,16.90
2019-02-28T22:12:34.461Z,13.27
2019-02-28T22:15:03.073Z,12.27
2019-02-28T22:17:31.670Z,14.40
2019-02-28T22:20:00.347Z,13.63
2019-02-28T22:22:28.904Z,12.07
2019-02-28T22:24:57.514Z,12.33
2019-02-28T22:27:26.421Z,13.10
2019-02-28T22:29:55.013Z,11.53
2019-02-28T22:32:32.341Z,15.97
2019-02-28T22:35:09.322Z,11.93
2019-02-28T22:37:37.922Z,9.47
2019-02-28T22:40:06.605Z,11.10
2019-02-28T22:42:35.517Z,10.17
2019-02-28T22:45:04.710Z,17.60
2019-02-28T22:47:33.289Z,11.30
2019-02-28T22:50:01.884Z,11.43
2019-02-28T22:52:30.487Z,10.00
2019-02-28T22:54:59.346Z,14.50
2019-02-28T22:57:27.914Z,11.50
2019-02-28T22:59:56.645Z,13.03
